createdAt,value
2023-01-21T00:01:04.100Z,39.53
2023-01-21T00:03:34.251Z,42.97
2023-01-21T00:06:02.019Z,44.88
2023-01-21T00:08:29.765Z,43.40
2023-01-21T00:10:57.381Z,44.67
2023-01-21T00:13:25.095Z,45.05
2023-01-21T00:15:55.238Z,44.28
2023-01-21T00:18:22.910Z,38.75
2023-01-21T00:20:51.859Z,43.80
2023-01-21T00:23:19.666Z,39.50
2023-01-21T00:25:47.240Z,42.92
2023-01-21T00:28:14.899Z,43.28
2023-01-21T00:30:42.612Z,47.00
2023-01-21T00:33:10.335Z,48.95
2023-01-21T00:35:37.900Z,45.85
2023-01-21T00:38:06.834Z,38.22
2023-01-21T00:40:34.400Z,43.90
2023-01-21T00:43:02.088Z,40.63
2023-01-21T00:45:29.729Z,43.42
2023-01-21T00:47:57.335Z,45.10
2023-01-21T00:50:24.906Z,42.95
2023-01-21T00:52:52.693Z,48.40
2023-01-21T00:55:21.711Z,46.45
2023-01-21T00:57:49.385Z,45.03
2023-01-21T01:00:18.632Z,43.90
2023-01-21T01:02:46.886Z,38.10
2023-01-21T01:05:14.900Z,41.40
2023-01-21T01:07:43.436Z,43.13
2023-01-21T01:10:12.139Z,39.15
2023-01-21T01:12:41.169Z,41.85
2023-01-21T01:15:09.487Z,42.42
2023-01-21T01:17:37.145Z,41.42
2023-01-21T01:20:05.439Z,43.92
2023-01-21T01:22:33.041Z,48.38
2023-01-21T01:25:00.650Z,42.33
2023-01-21T01:27:28.211Z,39.00
2023-01-21T01:29:57.156Z,43.80
2023-01-21T01:32:24.734Z,42.42
2023-01-21T01:34:52.354Z,48.88
2023-01-21T01:37:19.939Z,45.45
2023-01-21T01:39:47.571Z,42.40
2023-01-21T01:42:15.705Z,43.22
2023-01-21T01:44:59.318Z,42.17
2023-01-21T01:47:31.050Z,46.60
2023-01-21T01:50:00.047Z,44.90
2023-01-21T01:52:28.582Z,43.90
2023-01-21T01:54:58.065Z,43.35
2023-01-21T01:57:30.607Z,42.33
2023-01-21T02:00:01.991Z,46.05
2023-01-21T02:02:29.693Z,45.85
2023-01-21T02:05:00.439Z,47.22
2023-01-21T02:07:30.423Z,42.25
2023-01-21T02:09:58.084Z,44.28
2023-01-21T02:12:26.096Z,47.63
2023-01-21T02:14:53.730Z,50.90
2023-01-21T02:17:32.923Z,46.85
2023-01-21T02:20:35.460Z,41.83
2023-01-21T02:23:06.836Z,44.67
2023-01-21T02:26:05.294Z,41.88
2023-01-21T02:28:48.604Z,41.40
2023-01-21T02:31:33.939Z,44.25
2023-01-21T02:34:16.204Z,43.72
2023-01-21T02:36:52.982Z,46.97
2023-01-21T02:39:27.777Z,47.53
2023-01-21T02:42:01.801Z,41.28
2023-01-21T02:44:34.902Z,45.63
2023-01-21T02:47:08.037Z,47.97
2023-01-21T02:49:39.478Z,40.83
2023-01-21T02:52:07.048Z,46.90
2023-01-21T02:54:53.044Z,37.53
2023-01-21T02:57:40.207Z,42.75
2023-01-21T03:00:12.599Z,42.38
2023-01-21T03:03:16.579Z,45.17
2023-01-21T03:06:08.035Z,39.97
2023-01-21T03:08:42.175Z,43.47
2023-01-21T03:11:14.321Z,43.30
2023-01-21T03:14:01.103Z,45.92
2023-01-21T03:16:49.552Z,49.17
2023-01-21T03:19:18.435Z,34.83
2023-01-21T03:21:48.213Z,35.78
2023-01-21T03:24:15.984Z,37.05
2023-01-21T03:26:45.684Z,39.90
2023-01-21T03:29:16.245Z,42.83
2023-01-21T03:31:45.238Z,40.83
2023-01-21T03:34:14.755Z,40.30
2023-01-21T03:36:46.452Z,44.20
2023-01-21T03:39:19.951Z,42.10
2023-01-21T03:41:48.236Z,47.80
2023-01-21T03:44:15.786Z,46.33
2023-01-21T03:46:49.206Z,48.80
2023-01-21T03:49:19.549Z,49.63
2023-01-21T03:51:51.587Z,44.47
2023-01-21T03:54:20.587Z,43.63
2023-01-21T03:56:48.159Z,42.30
2023-01-21T03:59:15.840Z,46.33
2023-01-21T04:01:43.676Z,42.92
2023-01-21T04:04:11.661Z,51.13
2023-01-21T04:06:39.268Z,42.20
2023-01-21T04:09:07.569Z,42.72
2023-01-21T04:11:36.543Z,39.85
2023-01-21T04:14:04.150Z,45.00
2023-01-21T04:16:31.760Z,43.40
2023-01-21T04:18:59.366Z,42.28
2023-01-21T04:21:27.090Z,45.90
2023-01-21T04:23:55.239Z,42.92
2023-01-21T04:26:22.851Z,48.95
2023-01-21T04:28:51.777Z,47.72
2023-01-21T04:31:19.436Z,38.67
2023-01-21T04:33:47.046Z,49.85
2023-01-21T04:36:14.665Z,46.63
2023-01-21T04:38:42.415Z,45.38
2023-01-21T04:41:09.973Z,46.15
2023-01-21T04:43:37.606Z,42.28
2023-01-21T04:46:06.979Z,44.40
2023-01-21T04:48:34.598Z,44.55
2023-01-21T04:51:02.428Z,41.75
2023-01-21T04:53:30.115Z,41.90
2023-01-21T04:55:57.845Z,53.55
2023-01-21T04:58:26.579Z,41.00
2023-01-21T05:00:55.338Z,47.67
2023-01-21T05:03:24.419Z,44.75
2023-01-21T05:05:51.990Z,48.35
2023-01-21T05:08:19.623Z,46.70
2023-01-21T05:10:47.200Z,40.92
2023-01-21T05:13:14.880Z,41.05
2023-01-21T05:15:42.507Z,38.78
2023-01-21T05:18:10.138Z,44.53
2023-01-21T05:20:39.098Z,45.50
2023-01-21T05:23:06.691Z,47.90
2023-01-21T05:25:34.264Z,43.67
2023-01-21T05:28:01.844Z,42.30
2023-01-21T05:30:29.521Z,42.42
2023-01-21T05:32:57.438Z,48.72
2023-01-21T05:35:25.795Z,39.35
2023-01-21T05:37:54.795Z,45.28
2023-01-21T05:40:22.630Z,45.90
2023-01-21T05:42:50.201Z,48.78
2023-01-21T05:45:18.012Z,46.38
2023-01-21T05:47:45.646Z,46.95
2023-01-21T05:50:13.736Z,42.97
2023-01-21T05:52:41.342Z,38.20
2023-01-21T05:55:10.772Z,47.95
2023-01-21T05:57:38.382Z,49.63
2023-01-21T06:00:07.138Z,48.72
2023-01-21T06:02:34.794Z,46.60
2023-01-21T06:05:02.411Z,48.78
2023-01-21T06:07:30.035Z,38.75
2023-01-21T06:09:57.643Z,45.15
2023-01-21T06:12:26.624Z,42.42
2023-01-21T06:14:54.347Z,41.50
2023-01-21T06:17:21.986Z,44.75
2023-01-21T06:19:49.521Z,44.55
2023-01-21T06:22:17.566Z,45.72
2023-01-21T06:24:45.525Z,42.60
2023-01-21T06:27:13.329Z,44.95
2023-01-21T06:29:42.276Z,44.38
2023-01-21T06:32:09.883Z,41.67
2023-01-21T06:34:37.557Z,44.10
2023-01-21T06:37:05.144Z,37.10
2023-01-21T06:39:32.786Z,38.92
2023-01-21T06:42:00.527Z,47.20
2023-01-21T06:44:28.143Z,37.53
2023-01-21T06:47:01.136Z,39.55
2023-01-21T06:49:29.206Z,35.28
2023-01-21T06:51:56.894Z,44.08
2023-01-21T06:54:24.488Z,49.97
2023-01-21T06:56:52.081Z,51.53
2023-01-21T06:59:19.660Z,44.85
2023-01-21T07:01:47.326Z,40.10
2023-01-21T07:04:16.435Z,39.38
2023-01-21T07:06:44.010Z,44.97
2023-01-21T07:09:12.029Z,36.00
2023-01-21T07:11:39.614Z,40.45
2023-01-21T07:14:07.209Z,42.30
2023-01-21T07:16:34.793Z,42.38
2023-01-21T07:19:02.387Z,36.35
2023-01-21T07:21:31.342Z,45.65
2023-01-21T07:24:00.461Z,44.13
2023-01-21T07:26:28.085Z,44.40
2023-01-21T07:28:55.660Z,42.35
2023-01-21T07:31:23.414Z,45.03
2023-01-21T07:33:51.077Z,42.92
2023-01-21T07:36:18.649Z,35.78
2023-01-21T07:38:47.666Z,38.85
2023-01-21T07:41:15.331Z,39.78
2023-01-21T07:43:42.915Z,34.72
2023-01-21T07:46:10.514Z,41.22
2023-01-21T07:48:38.182Z,41.22
2023-01-21T07:51:06.217Z,46.55
2023-01-21T07:53:33.830Z,46.50
2023-01-21T07:56:05.779Z,47.42
2023-01-21T08:01:00.849Z,45.10
2023-01-21T08:03:28.435Z,46.10
2023-01-21T08:05:56.000Z,45.67
2023-01-21T08:08:23.702Z,46.75
2023-01-21T08:10:52.749Z,45.00
2023-01-21T08:13:21.967Z,45.42
2023-01-21T08:15:51.060Z,50.15
2023-01-21T08:18:18.822Z,44.35
2023-01-21T08:20:46.573Z,45.95
2023-01-21T08:23:14.255Z,46.22
2023-01-21T08:25:42.011Z,45.15
2023-01-21T08:28:09.584Z,44.22
2023-01-21T08:30:38.588Z,53.58
2023-01-21T08:33:06.560Z,46.38
2023-01-21T08:35:34.854Z,48.00
2023-01-21T08:38:02.578Z,51.55
2023-01-21T08:40:30.302Z,49.20
2023-01-21T08:43:01.563Z,54.53
2023-01-21T08:45:29.429Z,40.88
2023-01-21T08:47:58.432Z,45.45
2023-01-21T08:50:26.089Z,38.70
2023-01-21T08:52:54.052Z,45.38
2023-01-21T08:55:24.917Z,56.00
2023-01-21T08:57:53.470Z,49.88
2023-01-21T09:00:22.212Z,44.15
2023-01-21T09:02:51.601Z,49.03
2023-01-21T09:05:21.033Z,46.45
2023-01-21T09:07:48.650Z,50.30
2023-01-21T09:10:37.402Z,42.47
2023-01-21T09:13:06.021Z,42.15
2023-01-21T09:15:37.668Z,46.40
2023-01-21T09:18:05.399Z,48.67
2023-01-21T09:20:34.451Z,44.00
2023-01-21T09:23:02.116Z,50.30
2023-01-21T09:25:29.698Z,50.97
2023-01-21T09:27:57.302Z,53.88
2023-01-21T09:30:24.942Z,52.35
2023-01-21T09:32:52.534Z,46.92
2023-01-21T09:35:20.175Z,49.72
2023-01-21T09:37:49.107Z,42.45
2023-01-21T09:40:17.951Z,40.50
2023-01-21T09:42:47.258Z,52.75
2023-01-21T09:45:16.381Z,44.78
2023-01-21T09:47:46.144Z,52.40
2023-01-21T09:50:16.607Z,44.03
2023-01-21T09:52:45.817Z,57.30
2023-01-21T09:55:17.764Z,43.50
2023-01-21T09:58:08.961Z,54.55
2023-01-21T10:00:38.388Z,45.05
2023-01-21T10:03:15.999Z,47.13
2023-01-21T10:06:19.461Z,49.25
2023-01-21T10:09:40.871Z,43.88
2023-01-21T10:12:23.224Z,41.65
2023-01-21T10:15:05.843Z,45.38
2023-01-21T10:17:47.522Z,47.60
2023-01-21T10:20:18.449Z,40.90
2023-01-21T10:22:50.612Z,31.73
2023-01-21T10:25:21.508Z,38.13
2023-01-21T10:27:50.667Z,42.70
2023-01-21T10:30:25.327Z,41.90
2023-01-21T10:32:55.582Z,42.97
2023-01-21T10:35:31.573Z,45.65
2023-01-21T10:38:05.980Z,48.42
2023-01-21T10:40:45.616Z,49.15
2023-01-21T10:43:21.159Z,35.85
2023-01-21T10:45:56.058Z,43.58
2023-01-21T10:48:29.727Z,41.33
2023-01-21T10:51:02.030Z,40.15
2023-01-21T10:53:34.562Z,44.70
2023-01-21T10:56:10.190Z,46.25
2023-01-21T10:58:42.968Z,44.40
2023-01-21T11:01:17.730Z,43.88
2023-01-21T11:03:47.509Z,45.25
2023-01-21T11:06:17.457Z,44.45
2023-01-21T11:08:47.008Z,39.72
2023-01-21T11:11:16.085Z,36.47
2023-01-21T11:13:45.488Z,43.03
2023-01-21T11:16:13.411Z,40.47
2023-01-21T11:18:42.676Z,42.00
2023-01-21T11:21:18.630Z,40.42
2023-01-21T11:23:54.528Z,39.63
2023-01-21T11:26:25.680Z,37.85
2023-01-21T11:29:08.623Z,41.65
2023-01-21T11:31:37.257Z,39.92
2023-01-21T11:34:06.225Z,41.17
2023-01-21T11:36:34.237Z,36.90
2023-01-21T11:39:03.988Z,39.10
2023-01-21T11:41:32.203Z,39.25
2023-01-21T11:44:11.591Z,41.70
2023-01-21T11:46:41.069Z,42.20
2023-01-21T11:49:33.270Z,36.03
2023-01-21T11:52:16.233Z,33.38
2023-01-21T11:54:44.506Z,34.63
2023-01-21T11:57:26.597Z,39.22
2023-01-21T12:02:30.114Z,35.65
2023-01-21T12:05:00.777Z,44.90
2023-01-21T12:07:31.540Z,34.95
2023-01-21T12:10:06.779Z,39.95
2023-01-21T12:12:44.031Z,35.78
2023-01-21T12:15:23.193Z,37.30
2023-01-21T12:17:55.787Z,39.50
2023-01-21T12:20:29.453Z,38.75
2023-01-21T12:23:08.065Z,36.58
2023-01-21T12:25:41.891Z,38.03
2023-01-21T12:28:24.393Z,38.20
2023-01-21T12:30:59.345Z,33.55
2023-01-21T12:33:41.715Z,34.97
2023-01-21T12:36:12.901Z,38.65
2023-01-21T12:38:43.629Z,40.90
2023-01-21T12:41:15.554Z,33.58
2023-01-21T12:46:17.590Z,35.45
2023-01-21T12:48:49.489Z,36.92
2023-01-21T12:51:22.365Z,34.35
2023-01-21T12:53:54.444Z,34.70
2023-01-21T12:56:27.338Z,35.13
2023-01-21T12:58:58.065Z,43.17
2023-01-21T13:01:42.716Z,37.95
2023-01-21T13:04:22.480Z,40.38
2023-01-21T13:06:54.617Z,40.08
2023-01-21T13:09:30.795Z,31.33
2023-01-21T13:12:01.263Z,38.10
2023-01-21T13:14:32.410Z,33.67
2023-01-21T13:17:04.650Z,43.20
2023-01-21T13:19:33.557Z,34.30
2023-01-21T13:22:05.861Z,35.15
2023-01-21T13:24:36.053Z,35.65
2023-01-21T13:27:10.494Z,36.40
2023-01-21T13:29:45.481Z,37.45
2023-01-21T13:32:25.879Z,39.65
2023-01-21T13:34:58.754Z,42.03
2023-01-21T13:37:32.408Z,46.85
2023-01-21T13:40:23.528Z,37.38
2023-01-21T13:42:56.926Z,34.95
2023-01-21T13:45:34.873Z,31.35
2023-01-21T13:48:20.158Z,37.83
2023-01-21T13:51:09.584Z,34.90
2023-01-21T13:53:49.612Z,42.22
2023-01-21T13:56:29.436Z,32.50
2023-01-21T13:58:59.844Z,38.67
2023-01-21T14:01:30.769Z,35.15
2023-01-21T14:04:04.274Z,35.50
2023-01-21T14:06:35.927Z,38.15
2023-01-21T14:09:06.015Z,39.10
2023-01-21T14:11:36.793Z,36.03
2023-01-21T14:14:47.771Z,41.17
2023-01-21T14:17:28.563Z,41.40
2023-01-21T14:20:14.482Z,34.17
2023-01-21T14:22:58.020Z,35.30
2023-01-21T14:25:34.205Z,31.58
2023-01-21T14:28:08.514Z,31.63
2023-01-21T14:30:41.426Z,39.67
2023-01-21T14:33:11.046Z,36.67
2023-01-21T14:35:43.542Z,33.80
2023-01-21T14:38:17.596Z,34.08
2023-01-21T14:40:47.049Z,34.97
2023-01-21T14:43:20.513Z,43.78
2023-01-21T14:45:55.658Z,61.05
2023-01-21T14:48:31.176Z,52.80
2023-01-21T14:51:13.098Z,45.50
2023-01-21T14:53:46.796Z,37.30
2023-01-21T14:56:20.957Z,36.30
2023-01-21T14:58:51.398Z,42.05
2023-01-21T15:01:35.186Z,37.42
2023-01-21T15:04:07.525Z,31.95
2023-01-21T15:06:40.319Z,36.00
2023-01-21T15:09:09.404Z,35.17
2023-01-21T15:11:38.411Z,37.42
2023-01-21T15:14:13.739Z,35.97
2023-01-21T15:16:42.537Z,40.20
2023-01-21T15:19:24.290Z,35.75
2023-01-21T15:22:15.989Z,33.03
2023-01-21T15:25:02.662Z,38.25
2023-01-21T15:27:32.908Z,31.55
2023-01-21T15:30:28.239Z,34.00
2023-01-21T15:32:56.296Z,29.80
2023-01-21T15:35:26.214Z,33.72
2023-01-21T15:38:09.641Z,31.25
2023-01-21T15:40:39.273Z,29.98
2023-01-21T15:43:15.404Z,33.58
2023-01-21T15:45:48.672Z,28.88
2023-01-21T15:48:41.263Z,26.35
2023-01-21T15:51:20.694Z,25.75
2023-01-21T15:54:02.239Z,27.17
2023-01-21T15:56:42.569Z,18.90
2023-01-21T15:59:23.047Z,29.83
2023-01-21T16:02:04.425Z,32.25
2023-01-21T16:04:35.740Z,24.60
2023-01-21T16:07:14.080Z,24.98
2023-01-21T16:09:52.266Z,27.00
2023-01-21T16:12:24.807Z,28.67
2023-01-21T16:15:01.130Z,25.48
2023-01-21T16:17:59.953Z,25.00
2023-01-21T16:20:36.977Z,30.17
2023-01-21T16:23:07.613Z,25.60
2023-01-21T16:25:55.110Z,27.25
2023-01-21T16:28:23.309Z,28.67
2023-01-21T16:30:58.732Z,23.05
2023-01-21T16:34:10.989Z,19.17
2023-01-21T16:36:29.027Z,19.33
2023-01-21T16:38:56.715Z,22.30
2023-01-21T16:41:27.730Z,24.65
2023-01-21T16:43:57.776Z,23.40
2023-01-21T16:46:27.771Z,28.30
2023-01-21T16:48:58.394Z,24.80
2023-01-21T16:51:29.830Z,27.10
2023-01-21T16:54:28.735Z,23.38
2023-01-21T16:57:00.163Z,25.33
2023-01-21T16:59:41.929Z,19.98
2023-01-21T17:02:17.761Z,21.17
2023-01-21T17:04:45.470Z,22.10
2023-01-21T17:07:15.364Z,25.45
2023-01-21T17:09:43.020Z,25.52
2023-01-21T17:12:20.692Z,25.15
2023-01-21T17:14:48.361Z,21.00
2023-01-21T17:17:22.045Z,27.63
2023-01-21T17:19:51.203Z,20.25
2023-01-21T17:22:20.966Z,25.85
2023-01-21T17:24:59.137Z,19.75
2023-01-21T17:27:28.701Z,21.30
2023-01-21T17:30:26.887Z,21.10
2023-01-21T17:32:56.013Z,21.70
2023-01-21T17:35:24.599Z,24.58
2023-01-21T17:37:56.789Z,20.20
2023-01-21T17:40:29.844Z,21.58
2023-01-21T17:42:58.689Z,23.25
2023-01-21T17:45:32.596Z,23.23
2023-01-21T17:48:12.537Z,21.90
2023-01-21T17:50:45.879Z,24.25
2023-01-21T17:53:20.284Z,26.17
2023-01-21T17:55:57.415Z,23.95
2023-01-21T17:58:49.848Z,20.92
2023-01-21T18:01:20.118Z,20.95
2023-01-21T18:03:47.918Z,24.42
2023-01-21T18:06:20.451Z,32.78
2023-01-21T18:08:50.454Z,23.35
2023-01-21T18:11:18.783Z,23.88
2023-01-21T18:13:46.622Z,23.48
2023-01-21T18:16:14.581Z,23.80
2023-01-21T18:18:43.738Z,23.20
2023-01-21T18:21:18.215Z,24.67
2023-01-21T18:23:45.928Z,27.05
2023-01-21T18:26:18.654Z,29.65
2023-01-21T18:28:46.301Z,30.10
2023-01-21T18:31:14.088Z,24.70
2023-01-21T18:33:43.231Z,24.88
2023-01-21T18:36:11.947Z,24.88
2023-01-21T18:38:39.742Z,22.77
2023-01-21T18:41:08.853Z,25.35
2023-01-21T18:43:36.536Z,24.27
2023-01-21T18:46:04.275Z,28.83
2023-01-21T18:48:33.355Z,25.52
2023-01-21T18:51:02.410Z,25.90
2023-01-21T18:53:30.101Z,25.95
2023-01-21T18:55:58.602Z,24.92
2023-01-21T18:58:26.234Z,26.13
2023-01-21T19:00:54.122Z,27.08
2023-01-21T19:03:23.190Z,29.60
2023-01-21T19:05:51.086Z,29.10
2023-01-21T19:08:24.527Z,30.08
2023-01-21T19:10:52.192Z,28.45
2023-01-21T19:13:19.884Z,33.67
2023-01-21T19:15:47.942Z,29.63
2023-01-21T19:18:16.690Z,25.98
2023-01-21T19:20:44.389Z,27.45
2023-01-21T19:23:15.531Z,25.90
2023-01-21T19:25:45.221Z,20.75
2023-01-21T19:28:13.352Z,29.95
2023-01-21T19:30:45.139Z,25.15
2023-01-21T19:35:42.829Z,28.60
2023-01-21T19:38:12.717Z,30.88
2023-01-21T19:40:40.464Z,27.90
2023-01-21T19:43:12.052Z,27.80
2023-01-21T19:45:39.639Z,26.80
2023-01-21T19:48:11.787Z,28.65
2023-01-21T19:50:39.449Z,25.52
2023-01-21T19:53:07.083Z,29.30
2023-01-21T19:55:36.931Z,26.50
2023-01-21T19:58:06.463Z,30.13
2023-01-21T20:00:36.466Z,23.05
2023-01-21T20:03:04.580Z,27.65
2023-01-21T20:05:33.909Z,33.03
2023-01-21T20:08:01.877Z,28.95
2023-01-21T20:10:31.181Z,33.10
2023-01-21T20:12:59.097Z,30.52
2023-01-21T20:15:30.064Z,28.15
2023-01-21T20:18:00.488Z,29.33
2023-01-21T20:20:29.433Z,25.25
2023-01-21T20:22:57.433Z,31.58
2023-01-21T20:25:26.617Z,26.33
2023-01-21T20:27:56.337Z,27.52
2023-01-21T20:30:25.755Z,31.70
2023-01-21T20:32:53.452Z,30.70
2023-01-21T20:35:24.546Z,35.22
2023-01-21T20:37:53.003Z,25.95
2023-01-21T20:40:23.048Z,25.33
2023-01-21T20:42:51.793Z,28.75
2023-01-21T20:45:22.327Z,32.10
2023-01-21T20:47:52.793Z,28.15
2023-01-21T20:50:23.187Z,31.65
2023-01-21T20:52:51.787Z,25.90
2023-01-21T20:55:21.232Z,34.55
2023-01-21T20:57:49.254Z,23.20
2023-01-21T21:00:24.061Z,28.45
2023-01-21T21:02:51.841Z,26.88
2023-01-21T21:05:19.876Z,30.70
2023-01-21T21:07:49.393Z,28.70
2023-01-21T21:10:20.950Z,31.83
2023-01-21T21:12:49.307Z,27.45
2023-01-21T21:15:17.964Z,26.35
2023-01-21T21:17:46.937Z,28.73
2023-01-21T21:20:19.819Z,22.65
2023-01-21T21:22:48.967Z,26.25
2023-01-21T21:25:18.307Z,26.08
2023-01-21T21:27:46.759Z,29.10
2023-01-21T21:30:16.906Z,26.83
2023-01-21T21:32:44.962Z,26.77
2023-01-21T21:35:23.754Z,25.35
2023-01-21T21:37:53.438Z,25.90
2023-01-21T21:40:23.114Z,28.33
2023-01-21T21:43:08.827Z,33.25
2023-01-21T21:45:37.115Z,33.13
2023-01-21T21:48:22.692Z,23.73
2023-01-21T21:50:56.607Z,31.20
2023-01-21T21:53:25.682Z,29.33
2023-01-21T21:55:53.333Z,29.05
2023-01-21T21:58:20.934Z,29.80
2023-01-21T22:00:52.645Z,26.35
2023-01-21T22:03:20.310Z,24.83
2023-01-21T22:05:52.160Z,29.73
2023-01-21T22:08:19.780Z,25.92
2023-01-21T22:10:57.463Z,30.65
2023-01-21T22:13:25.467Z,26.65
2023-01-21T22:15:56.616Z,29.48
2023-01-21T22:18:24.872Z,19.65
2023-01-21T22:21:25.842Z,25.38
2023-01-21T22:23:45.626Z,25.90
2023-01-21T22:41:22.335Z,30.05
2023-01-21T22:43:15.919Z,31.08
2023-01-21T22:43:51.742Z,30.73
2023-01-21T22:46:21.122Z,33.30
2023-01-21T22:48:48.951Z,32.97
2023-01-21T22:51:18.642Z,33.70
2023-01-21T22:53:46.645Z,29.50
2023-01-21T22:56:15.430Z,27.55
2023-01-21T22:58:43.325Z,29.40
2023-01-21T23:01:21.761Z,29.38
2023-01-21T23:03:49.502Z,30.42
2023-01-21T23:06:17.455Z,27.80
2023-01-21T23:08:45.361Z,28.48
2023-01-21T23:11:14.023Z,29.40
2023-01-21T23:13:41.626Z,35.13
2023-01-21T23:16:10.602Z,35.47
2023-01-21T23:18:42.019Z,37.30
2023-01-21T23:21:11.406Z,35.20
2023-01-21T23:23:39.619Z,37.30
2023-01-21T23:26:09.133Z,35.65
2023-01-21T23:28:37.571Z,33.33
2023-01-21T23:31:06.411Z,31.63
2023-01-21T23:33:34.307Z,34.22
2023-01-21T23:36:03.600Z,33.80
2023-01-21T23:38:31.810Z,32.55
2023-01-21T23:40:59.953Z,34.45
2023-01-21T23:43:28.063Z,36.67
2023-01-21T23:45:56.315Z,30.20
2023-01-21T23:48:24.678Z,29.90
2023-01-21T23:50:52.557Z,30.85
2023-01-21T23:53:21.691Z,30.70
2023-01-21T23:55:49.452Z,31.67
2023-01-21T23:58:19.941Z,26.80
